Tiempo atmosférico en la estación meteorológica de Águilas, Murcia (26 m.)



Fecha
DESCASC
Temp. máxima en grados centígrados (hora)
DESCASC
Temp. mínima en grados centígrados (hora)
DESCASC
Temp. media en grados centígrados
DESCASC
Racha de viento máxima en m/sg (hora)
DESCASC
Velocidad máxima media en intervalos de 10 minutos(hora)
DESCASC
Precipitaciones diarias en mm
DESCASC
Precipitaciones de 00:00 a 06:00 en mm
DESCASC
Precipitaciones de 06:00 a 12:00 en mm
DESCASC
Precipitaciones de 12:00 a 18:00 en mm
DESCASC
Precipitaciones de 18:00 a 24:00 en mm
DESCASC
23-06-2019 26.3 (15:00) 19.3 (06:50) 22.8 8.06 (17:10) 4.72 (17:10) 0 0 0 0 0
22-06-2019 26.1 (16:30) 20.2 (05:50) 23.2 10.28 (15:00) 6.11 (14:20) 0 0 0 0 0
21-06-2019 25.5 (13:20) 20.2 (04:30) 22.9 7.22 (14:30) 4.17 (14:40) 0 0 0 0 0
20-06-2019 26.8 (19:00) 18.8 (00:00) 22.8 8.06 (19:00) 5.28 (22:00) 0 0 0 0 0
19-06-2019 27 (17:10) 18.1 (00:00) 22.6 6.67 (20:30) 4.17 (20:20) 0 0 0 0 0
18-06-2019 24.9 (14:20) 18.3 (00:00) 21.6 6.39 (16:20) 3.33 (16:10) 0 0 0 0 0
17-06-2019 25.1 (19:00) 16.9 (00:00) 21 6.39 (13:00) 3.89 (13:10) 0 0 0 0 0
16-06-2019 26.9 (11:30) 16.8 (00:00) 21.8 10.83 (16:40) 6.39 (17:50) 0 0 0 0 0
15-06-2019 26.6 (11:40) 18.4 (00:00) 22.5 8.06 (13:00) 4.72 (13:00) 0 0 0 0 0
14-06-2019 28.4 (16:00) 20 (00:00) 24.2 11.11 (17:30) 5.56 (17:40) 2.6 0 2.6 0 0
13-06-2019 26.4 (12:50) 19.7 (00:00) 23.1 12.5 (13:30) 8.06 (15:10) 0 0 0 0 0
12-06-2019 23.6 (12:00) 19 (00:00) 21.3 12.22 (15:30) 7.78 (15:20) 0 0 0 0 0
11-06-2019 24.7 (15:10) 17.3 (00:00) 21 14.17 (22:00) 8.06 (22:00) 0 0 0 0 0
10-06-2019 30 (11:10) 18.5 (00:00) 24.3 7.5 (11:50) 4.17 (11:50) 0 0 0 0 0
09-06-2019 24.5 (17:10) 18 (00:00) 21.3 6.67 (12:50) 3.89 (12:40) 0 0 0 0 0
08-06-2019 27.7 (14:30) 18.1 (00:00) 22.9 -- (--) -- (--) 0 0 0 0 0
07-06-2019 25.8 (17:00) 16.5 (00:00) 21.1 6.39 (13:30) 4.17 (18:20) 0 0 0 0 0
06-06-2019 24.9 (14:50) 17.6 (00:00) 21.3 7.5 (13:30) 4.17 (12:30) 0 0 0 0 0
05-06-2019 32.9 (16:50) 18.2 (00:00) 25.6 14.44 (11:50) 8.61 (11:50) 0 0 0 0 0
04-06-2019 25.9 (15:30) 16.5 (00:00) 21.2 6.39 (14:40) 3.61 (19:50) 0 0 0 0 0
03-06-2019 26.1 (19:00) 16.3 (00:00) 21.2 6.39 (15:30) 3.33 (15:30) 0 0 0 0 0
02-06-2019 27.6 (13:40) 15.9 (00:00) 21.8 7.78 (12:10) 5 (12:00) 0 0 0 0 0
01-06-2019 26.9 (15:00) 15.4 (00:00) 21.1 11.67 (14:20) 7.5 (14:10) 0 0 0 0 0
31-05-2019 23.6 (10:40) 15 (00:00) 19.3 10.83 (13:30) 6.67 (14:20) 0 0 0 0 0
30-05-2019 23.9 (12:10) 15.8 (00:00) 19.8 10.56 (18:40) 6.11 (13:00) 0 0 0 0 0
29-05-2019 23.7 (11:40) 18 (00:00) 20.9 12.22 (11:50) 7.22 (13:30) 0 0 0 0 0
28-05-2019 25.5 (13:10) 17.7 (00:00) 21.6 8.89 (13:30) 5.83 (14:40) 0 0 0 0 0

Gráficas

Temp. máximas Temp. mínimas Temp. medias Precipitaciones Rachas de viento máximas Velocidades máximas media en intervalos de 10 minutos

Datos horarios

Fecha y hora oficial Temperatura (ºC) Velocidad del viento (km/h) Dirección del viento Racha (km/h) Dirección de racha Precipitación (mm) Presión (hPa) Tendencia (hPa) Humedad (%)
2019-06-26 23:00:00 23.6 5 Este 17 Sudeste 0 1013.1 0.3 76
2019-06-26 22:00:00 24.6 6 Sudeste 10 Sudoeste 0 1012.6 0.3 71
2019-06-26 21:00:00 25.2 7 Oeste 13 Oeste 0 1012.4 0.2 67
2019-06-26 20:00:00 24.7 5 Sudeste 20 Sudeste 0 1012.8 0.3 71
2019-06-26 19:00:00 25.2 13 Sudeste 26 Sudeste 0 1012.3 -0.8 68
2019-06-26 18:00:00 26.5 13 Sudeste 24 Este 0 1012.2 -1.5 61
2019-06-26 17:00:00 26.9 11 Sur 23 Sudeste 0 1012.5 -1.5 59
2019-06-26 16:00:00 26.7 11 Sudeste 23 Sudeste 0 1013.1 -1.3 61
2019-06-26 15:00:00 26.2 9 Sur 20 Sur 0 1013.7 -0.6 64
2019-06-26 14:00:00 26.3 10 Sur 22 Sur 0 1014 -0.4 64
2019-06-26 13:00:00 25.8 12 Sudeste 23 Este 0 1014.4 0 65
2019-06-26 12:00:00 26.1 10 Sudeste 20 Este 0 1014.3 0.3 63
2019-06-26 11:00:00 24.5 10 Este 22 Este 0 1014.4 0.9 69
2019-06-26 10:00:00 23.5 11 Este 22 Sudeste 0 1014.4 1.2 75
2019-06-26 09:00:00 24 6 Este 15 Este 0 1014 1 69
2019-06-26 08:00:00 23.5 2 Noroeste 9 Noroeste 0 1013.5 0.9 69
2019-06-26 07:00:00 23.1 3 Nordeste 7 Nordeste 0 1013.2 0.8 73
2019-06-26 06:00:00 23.3 5 Sudeste 9 Este 0 1013 0.6 73
2019-06-26 05:00:00 22.7 3 Nordeste 9 Nordeste 0 1012.6 0.3 72
2019-06-26 04:00:00 22 5 Nordeste 10 Nordeste 0 1012.4 0.4 75
2019-06-26 03:00:00 22.2 3 Norte 8 Noroeste 0 1012.4 -0.5 74
2019-06-26 02:00:00 22.8 2 Sudeste 12 Sur 0 1012.3 -0.7 72
2019-06-26 01:00:00 22.5 6 Este 10 Nordeste 0 1012 -0.7 72
2019-06-26 00:00:00 22.5 4 Noroeste 9 Este 0 1012.9 0.7 73
2019-06-25 23:00:00 22.9 4 Este 9 Este 0 1013 1.5 73
2019-06-25 22:00:00 23.2 4 Sudeste 12 Sudeste 0 1012.7 1.6 72
2019-06-25 21:00:00 23.8 8 Sudeste 19 Sudeste 0 1012.2 0.7 69
2019-06-25 20:00:00 25 10 Sudeste 21 Sudeste 0 1011.5 -0.6 64
2019-06-25 19:00:00 25.6 10 Sudeste 23 Sudeste 0 1011.1 -1.4 61
2019-06-25 18:00:00 25.9 10 Sudeste 21 Sur 0 1011.5 -1.3 58
2019-06-25 17:00:00 25.5 9 Sudeste 21 Sudeste 0 1012.1 -0.6 63
2019-06-25 16:00:00 25.5 11 Sudeste 26 Sur 0 1012.5 -0.4 64
2019-06-25 15:00:00 25.8 12 Sur 29 Sudeste 0 1012.8 0.1 63
2019-06-25 14:00:00 26.1 14 Sudeste 26 Sudeste 0 1012.7 0 61
2019-06-25 13:00:00 25.9 12 Sudeste 26 Este 0 1012.9 0 59
2019-06-25 12:00:00 26 12 Sudeste 24 Sudeste 0 1012.7 0 61
2019-06-25 11:00:00 26.3 9 Sudeste 19 Sur 0 1012.7 0.4 60
2019-06-25 10:00:00 25 12 Sudeste 17 Sudeste 0 1012.9 1.4 66
2019-06-25 09:00:00 23.9 8 Sudeste 17 Este 0 1012.7 1.8 70
2019-06-25 08:00:00 23.5 4 Este 6 Este 0 1012.3 1.6 59
2019-06-25 07:00:00 21.1 2 Nordeste 8 Noroeste 0 1011.5 1.1 52
2019-06-25 06:00:00 22 5 Norte 8 Nordeste 0 1010.9 0.1 51
2019-06-25 05:00:00 21.3 0 Calma 6 Nordeste 0 1010.7 -0.5 54
2019-06-25 04:00:00 21.8 0 Calma 5 Nordeste 0 1010.4 -0.9 54
2019-06-25 03:00:00 22.9 3 Nordeste 9 Norte 0 1010.8 -0.5 54
2019-06-25 02:00:00 22.7 4 Noroeste 10 Nordeste 0 1011.2 0.2 57
2019-06-25 01:00:00 23.7 3 Nordeste 7 Noroeste 0 1011.3 1 55
2019-06-25 00:00:00 23.5 3 Oeste 11 Norte 0 1011.3 1.6 57
2019-06-24 23:00:00 23.9 5 Noroeste 8 Noroeste 0 1011 1.7 59
2019-06-24 22:00:00 24.3 3 Oeste 9 Oeste 0 1010.3 1 61
2019-06-24 21:00:00 25.6 5 Sur 10 Sudoeste 0 1009.7 0.4 57
2019-06-24 20:00:00 26.4 6 Sudoeste 15 Sudoeste 0 1009.3 -0.1 55
2019-06-24 19:00:00 26.8 9 Sur 18 Sudoeste 0 1009.3 -0.7 55
2019-06-24 18:00:00 26.9 10 Sudoeste 20 Sudoeste 0 1009.3 -0.8 51
2019-06-24 17:00:00 26.6 9 Sur 21 Sudeste 0 1009.4 -1 56
2019-06-24 16:00:00 26.6 12 Sur 22 Sur 0 1010 -0.4 54
2019-06-24 15:00:00 26.6 11 Sur 22 Sudeste 0 1010.1 -0.5 56
2019-06-24 14:00:00 26.6 11 Sur 24 Sur 0 1010.4 -0.1 54
2019-06-24 13:00:00 26.4 10 Sudeste 22 Sudeste 0 1010.4 -0.1 52
2019-06-24 12:00:00 26.2 12 Sur 23 Sur 0 1010.6 0.4 52
2019-06-24 11:00:00 26.2 15 Sudeste 24 Sudeste 0 1010.5 0.5 50
2019-06-24 10:00:00 26.2 9 Sudeste 24 Sudeste 0 1010.5 0.7 44
2019-06-24 09:00:00 25.9 3 Sur 11 Sudeste 0 1010.2 0.7 41
2019-06-24 08:00:00 22 2 Noroeste 6 Nordeste 0 1010 0.5 59
2019-06-24 07:00:00 20.8 5 Nordeste 9 Nordeste 0 1009.8 0.2 65
2019-06-24 06:00:00 20.4 4 Norte 8 Norte 0 1009.5 -0.5 71
2019-06-24 05:00:00 20.8 5 Norte 8 Norte 0 1009.5 -0.8 69
2019-06-24 04:00:00 20.6 0 Calma 8 Norte 0 1009.6 -0.7 70
2019-06-24 03:00:00 21.1 5 Norte 8 Norte 0 1010 -0.2 71
2019-06-24 02:00:00 21.3 5 Noroeste 8 Norte 0 1010.3 0 76
2019-06-24 01:00:00 21.7 2 Noroeste 13 Sudoeste 0 1010.3 0.3 76
2019-06-24 00:00:00 21.8 5 Oeste 7 Oeste 0 1010.2 0.4 75
2019-06-23 23:00:00 22.3 4 Este 14 Este 0 1010.3 1.1 75
2019-06-23 22:00:00 22.7 9 Este 19 Este 0 1010 1.2 72
2019-06-23 21:00:00 23.1 9 Sudeste 23 Sudeste 0 1009.8 0.8 71
2019-06-23 20:00:00 23.9 13 Sudeste 23 Sudeste 0 1009.2 0.2 68
2019-06-23 19:00:00 24.3 12 Sudeste 23 Sudeste 0 1008.8 -1 67
2019-06-23 18:00:00 24.9 13 Sudeste 29 Sudeste 0 1009 -1.1 63
2019-06-23 17:00:00 25.5 15 Sudeste 26 Sudeste 0 1009 -1.6 60
2019-06-23 16:00:00 26 13 Sudeste 27 Sudeste 0 1009.8 -1.3 58
2019-06-23 15:00:00 26.3 15 Sudeste 28 Sudeste 0 1010.1 -1.1 56
2019-06-23 14:00:00 25.9 12 Sudeste 26 Sur 0 1010.6 -0.6 58
2019-06-23 13:00:00 25.5 10 Sudeste 21 Sur 0 1011.1 0 61
2019-06-23 12:00:00 24.7 12 Sur 20 Sudeste 0 1011.2 0.4 59
2019-06-23 11:00:00 24.5 9 Sur 21 Sudoeste 0 1011.2 0.8 62
2019-06-23 10:00:00 24.1 8 Sudoeste 16 Sur 0 1011.1 1.2 66
2019-06-23 09:00:00 23.7 4 Oeste 11 Sudoeste 0 1010.8 1.1 66
2019-06-23 08:00:00 21.3 5 Noroeste 10 Norte 0 1010.4 0.6 75
2019-06-23 07:00:00 19.4 4 Norte 9 Nordeste 0 1009.9 -0.4 75
2019-06-23 06:00:00 19.8 4 Norte 7 Nordeste 0 1009.7 -0.9 73
2019-06-23 05:00:00 19.7 4 Noroeste 7 Noroeste 0 1009.8 -1.2 78
2019-06-23 04:00:00 20 6 Norte 10 Norte 0 1010.3 -1 70
2019-06-23 03:00:00 20.2 0 Calma 7 Nordeste 0 1010.6 -1.2 72
2019-06-23 02:00:00 20.9 0 Calma 6 Norte 0 1011 -0.7 73
2019-06-23 01:00:00 21.5 2 Norte 5 Este 0 1011.3 0.2 76
2019-06-23 00:00:00 21.8 3 Este 5 Este 0 1011.8 0.8 75
2019-06-22 23:00:00 22.2 3 Sudoeste 6 Sudoeste 0 1011.7 0.9 72
2019-06-22 22:00:00 22.4 3 Este 13 Sudeste 0 1011.1 0.3 70
2019-06-22 21:00:00 23.1 9 Sudeste 19 Sudeste 0 1011 0 69
2019-06-22 20:00:00 23.8 11 Sudeste 24 Sudeste 0 1010.8 -0.5 66
2019-06-22 19:00:00 24.2 13 Sudeste 29 Sudeste 0 1010.8 -1 66
2019-06-22 18:00:00 24.6 15 Sudeste 32 Sudeste 0 1011 -1.1 66
2019-06-22 17:00:00 25.6 19 Sudeste 31 Sudeste 0 1011.3 -1.3 60
2019-06-22 16:00:00 25.4 19 Sudeste 33 Sudeste 0 1011.8 -1.3 57
2019-06-22 15:00:00 25.5 19 Sudeste 37 Sudeste 0 1012.1 -1 59
2019-06-22 14:00:00 25.5 19 Sudeste 31 Sudeste 0 1012.6 -0.5 60
2019-06-22 13:00:00 25.6 16 Sudeste 32 Sudeste 0 1013.1 -0.1 58
2019-06-22 12:00:00 25.2 16 Sudeste 27 Sudeste 0 1013.1 0 58
2019-06-22 11:00:00 24.8 12 Sudeste 24 Sudeste 0 1013.1 0.5 61
2019-06-22 10:00:00 24.5 10 Sudeste 18 Sudeste 0 1013.2 1.1 58
2019-06-22 09:00:00 23.9 10 Sudeste 17 Sudeste 0 1013.1 1 60
2019-06-22 08:00:00 22.7 4 Este 7 Este 0 1012.6 0.6 61
2019-06-22 07:00:00 20.4 0 Calma 7 Norte 0 1012.1 -0.2 67
2019-06-22 06:00:00 20.4 4 Norte 7 Norte 0 1012.1 -0.2 67
2019-06-22 05:00:00 20.7 0 Calma 7 Nordeste 0 1012 -0.4 65
2019-06-22 04:00:00 20.9 0 Calma 4 Noroeste 0 1012.3 -0.1 65
2019-06-22 03:00:00 21.2 2 Norte 6 Norte 0 1012.3 0.1 65
2019-06-22 02:00:00 21.6 4 Norte 6 Norte 0 1012.4 0.4 64
2019-06-22 01:00:00 22.1 4 Este 6 Este 0 1012.4 1.3 64
2019-06-22 00:00:00 22.2 3 Este 9 Este 0 1012.2 1.5 64
2019-06-21 23:00:00 22.3 6 Este 10 Sudeste 0 1012 1.9 66
2019-06-21 22:00:00 22.5 5 Sudeste 10 Sudeste 0 1011.1 1.2 65
2019-06-21 21:00:00 23.4 6 Sudeste 12 Sur 0 1010.7 0.5 62
2019-06-21 20:00:00 24.2 7 Sur 17 Sudeste 0 1010.1 -0.3 60
2019-06-21 19:00:00 24.7 8 Sur 18 Sur 0 1009.9 -0.5 56
2019-06-21 18:00:00 24.7 10 Sudeste 22 Sudeste 0 1010.2 -0.4 62
2019-06-21 17:00:00 24.5 12 Sur 23 Sur 0 1010.4 -0.2 60
2019-06-21 16:00:00 24.9 12 Sur 25 Sur 0 1010.4 -0.6 62
2019-06-21 15:00:00 25.1 11 Sur 26 Sur 0 1010.6 -0.5 62
2019-06-21 14:00:00 25.2 12 Sur 22 Sur 0 1010.6 -0.5 59
2019-06-21 13:00:00 25 10 Sur 22 Sur 0 1011 -0.1 59
2019-06-21 12:00:00 25.1 10 Sudeste 22 Sur 0 1011.1 0.3 59
2019-06-21 11:00:00 24.7 8 Sur 17 Sudeste 0 1011.1 0.9 58
2019-06-21 10:00:00 24.1 8 Sur 15 Sur 0 1011.1 1.8 64
2019-06-21 09:00:00 23.2 3 Sudoeste 10 Oeste 0 1010.8 1.8 67
2019-06-21 08:00:00 21.4 3 Noroeste 6 Oeste 0 1010.2 1.5 76
2019-06-21 07:00:00 20.5 4 Este 10 Sudoeste 0 1009.3 0.7 77
2019-06-21 06:00:00 20.3 0 Calma 8 Oeste 0 1009 0.3 79
2019-06-21 05:00:00 20.2 5 Oeste 10 Noroeste 0 1008.7 0 80
2019-06-21 04:00:00 20.5 3 Noroeste 9 Norte 0 1008.6 0 77
2019-06-21 03:00:00 20.8 4 Este 14 Este 0 1008.7 0.1 77
2019-06-21 02:00:00 21 9 Este 16 Este 0 1008.7 0.7 78
2019-06-21 01:00:00 21.3 10 Este 20 Este 0 1008.6 1.3 77
2019-06-21 00:00:00 21.4 12 Este 25 Este 0 1008.6 1.8 75
2019-06-20 23:00:00 21.5 14 Este 26 Este 0 1008 1.5 75
2019-06-20 22:00:00 22 19 Este 28 Este 0 1007.3 0.6 72
2019-06-20 21:00:00 23.4 18 Este 27 Sudeste 0 1006.8 0 65
2019-06-20 20:00:00 25.8 14 Este 28 Este 0 1006.5 -0.6 56
2019-06-20 19:00:00 26.8 16 Este 29 Sudeste 0 1006.7 -1 51
2019-06-20 18:00:00 26 14 Sudeste 25 Sudeste 0 1006.8 -1.2 55
2019-06-20 17:00:00 25.6 17 Sudeste 27 Sudeste 0 1007.1 -1.4 58
2019-06-20 16:00:00 25.6 14 Sudeste 24 Sudeste 0 1007.7 -1.2 56
2019-06-20 15:00:00 25 15 Sur 25 Sur 0 1008 -0.7 64
2019-06-20 14:00:00 26.2 9 Sur 17 Sudoeste 0 1008.5 0.3 58
2019-06-20 13:00:00 26.7 10 Sur 18 Sur 0 1008.9 0.7 53
2019-06-20 12:00:00 25.5 9 Sur 19 Sur 0 1008.7 0.3 53
2019-06-20 11:00:00 24.9 7 Sur 13 Sudoeste 0 1008.2 -0.2 64
2019-06-20 10:00:00 24 5 Sur 11 Sur 0 1008.2 0 68
2019-06-20 09:00:00 23 4 Sur 8 Sudoeste 0 1008.4 0.5 70
2019-06-20 08:00:00 20.8 4 Noroeste 9 Norte 0 1008.4 0.7 76
2019-06-20 07:00:00 19.4 6 Norte 10 Norte 0 1008.2 0.6 77
2019-06-20 06:00:00 19.4 5 Noroeste 8 Norte 0 1007.9 -0.3 77
2019-06-20 05:00:00 19.3 4 Este 8 Este 0 1007.7 -0.9 79
2019-06-20 04:00:00 19.7 4 Norte 8 Norte 0 1007.6 -1 76
2019-06-20 03:00:00 20.3 3 Este 9 Nordeste 0 1008.2 -0.6 77
2019-06-20 02:00:00 20.6 3 Nordeste 11 Este 0 1008.6 0.1 75
2019-06-20 01:00:00 20.9 6 Este 13 Este 0 1008.6 0.6 75
2019-06-20 00:00:00 21.2 8 Este 14 Este 0 1008.8 1.1 73
2019-06-19 23:00:00 21.4 8 Este 19 Este 0 1008.5 0.9 73
2019-06-19 22:00:00 21.9 10 Este 23 Sudeste 0 1008 0.2 71
2019-06-19 21:00:00 23 14 Sudeste 24 Este 0 1007.7 -0.5 66
2019-06-19 20:00:00 24.4 12 Sudeste 23 Sudeste 0 1007.6 -1.2 61
2019-06-19 19:00:00 24.1 13 Sudeste 22 Sudeste 0 1007.8 -1.8 62
2019-06-19 18:00:00 25 9 Sudeste 18 Sudeste 0 1008.2 -2 60
2019-06-19 17:00:00 26.7 6 Sudeste 14 Sur 0 1008.8 -2.1 46
2019-06-19 16:00:00 25.8 8 Sudeste 17 Sudoeste 0 1009.6 -1.6 57
2019-06-19 15:00:00 25.8 8 Sur 15 Sur 0 1010.2 -0.7 57
2019-06-19 14:00:00 24.9 8 Sudoeste 18 Sur 0 1010.9 0.1 53
2019-06-19 13:00:00 24 12 Sur 22 Sur 0 1011.2 0.4 62
2019-06-19 12:00:00 24.7 8 Sudoeste 14 Sur 0 1010.9 0.1 58
2019-06-19 11:00:00 24.2 7 Sudoeste 14 Sudoeste 0 1010.8 0.2 63
2019-06-19 10:00:00 24.4 5 Sur 11 Sur 0 1010.8 0.6 61
2019-06-19 09:00:00 22.9 2 Noroeste 8 Oeste 0 1010.8 1 66
2019-06-19 08:00:00 20.8 4 Norte 8 Norte 0 1010.6 1.1 66
2019-06-19 07:00:00 19.2 3 Nordeste 8 Nordeste 0 1010.2 0.1 70
2019-06-19 06:00:00 18.9 3 Norte 13 Noroeste 0 1009.8 -0.6 71
2019-06-19 05:00:00 18.4 5 Noroeste 10 Noroeste 0 1009.5 -1.3 57
2019-06-19 04:00:00 18.5 7 Noroeste 12 Noroeste 0 1010.1 -0.7 68
2019-06-19 03:00:00 20 3 Nordeste 12 Nordeste 0 1010.4 -0.6 77
2019-06-19 02:00:00 20.2 8 Este 15 Nordeste 0 1010.8 -0.1 76
2019-06-19 01:00:00 20.5 8 Este 14 Este 0 1010.8 0.3 75
2019-06-19 00:00:00 20.8 6 Este 16 Sudeste 0 1011 0.7 75
2019-06-18 23:00:00 21.2 8 Sudeste 16 Sudeste 0 1010.9 0.6 75
2019-06-18 22:00:00 21.6 9 Sudeste 14 Sudeste 0 1010.5 0.6 69
2019-06-18 21:00:00 22.4 7 Este 16 Sudeste 0 1010.3 -0.1 64
2019-06-18 20:00:00 23 6 Sur 17 Sudeste 0 1010.3 -0.5 68
2019-06-18 19:00:00 24 8 Sudoeste 18 Sur 0 1009.9 -1.4 63
2019-06-18 18:00:00 24.2 9 Sur 20 Sudoeste 0 1010.4 -1.4 62
2019-06-18 17:00:00 24.5 11 Sur 23 Sudoeste 0 1010.8 -1.5 60
2019-06-18 16:00:00 24.5 11 Sur 21 Sudoeste 0 1011.3 -1.6 59
2019-06-18 15:00:00 24.5 10 Sur 21 Sudeste 0 1011.8 -1 59
2019-06-18 14:00:00 24.4 10 Sur 21 Sur 0 1012.3 -0.4 56
2019-06-18 13:00:00 23.7 10 Sur 22 Sudoeste 0 1012.9 0.4 61
2019-06-18 12:00:00 23.7 10 Sur 19 Sudoeste 0 1012.8 0.6 62
2019-06-18 11:00:00 23.3 9 Sur 19 Sur 0 1012.7 0.9 63
2019-06-18 10:00:00 23.2 8 Sur 15 Sudeste 0 1012.5 0.9 63
2019-06-18 09:00:00 23.1 3 Sudeste 7 Sudeste 0 1012.2 0.8 61
2019-06-18 08:00:00 20.5 4 Nordeste 7 Norte 0 1011.8 0.6 64
2019-06-18 07:00:00 18.5 3 Nordeste 8 Nordeste 0 1011.6 0.1 73
2019-06-18 06:00:00 18.6 4 Nordeste 9 Nordeste 0 1011.4 -0.4 71
2019-06-18 05:00:00 18.9 5 Nordeste 8 Norte 0 1011.2 -0.9 73
2019-06-18 04:00:00 18.7 4 Nordeste 8 Este 0 1011.5 -1.3 75
2019-06-18 03:00:00 18.7 0 Calma 7 Nordeste 0 1011.8 -1.2 71
2019-06-18 02:00:00 18.5 2 Este 4 Este 0 1012.1 -0.7 68
2019-06-18 01:00:00 19.3 3 Noroeste 6 Noroeste 0 1012.8 0.5 63
2019-06-18 00:00:00 19.7 2 Oeste 6 Noroeste 0 1013 0.9 61
2019-06-17 23:00:00 20.8 4 Oeste 7 Oeste 0 1012.8 0.8 68
2019-06-17 22:00:00 21.4 3 Oeste 6 Oeste 0 1012.3 0.4 66
2019-06-17 21:00:00 22.9 4 Sudeste 13 Sudoeste 0 1012.1 -0.3 60
2019-06-17 20:00:00 24.4 7 Sur 14 Sudoeste 0 1012 -0.9 55
2019-06-17 19:00:00 25 5 Sudoeste 14 Sudoeste 0 1011.9 -1.4 49
2019-06-17 18:00:00 23.8 8 Sudoeste 16 Sur 0 1012.4 -1.1 57
2019-06-17 17:00:00 23.7 10 Sudoeste 21 Sur 0 1012.9 -1.3 60
2019-06-17 16:00:00 24.1 10 Sur 21 Sur 0 1013.3 -0.9 59
2019-06-17 15:00:00 23.7 10 Sudoeste 23 Sur 0 1013.5 -0.9 61
2019-06-17 14:00:00 24.2 9 Sudoeste 22 Sur 0 1014.2 -0.4 59
2019-06-17 13:00:00 23.5 13 Sur 23 Sur 0 1014.2 -0.4 63
2019-06-17 12:00:00 23.2 11 Sur 21 Sur 0 1014.4 -0.2 62
2019-06-17 11:00:00 23.5 13 Sur 20 Sur 0 1014.6 0.5 55
2019-06-17 10:00:00 22.8 6 Sur 12 Sudeste 0 1014.6 1 62
2019-06-17 09:00:00 22.5 4 Sur 8 Sur 0 1014.6 0.9 57
2019-06-17 08:00:00 18.7 0 Calma 7 Noroeste 0 1014.1 0.3 54
2019-06-17 07:00:00 17.6 4 Noroeste 8 Nordeste 0 1013.6 -0.7 78
2019-06-17 06:00:00 18.9 4 Norte 8 Nordeste 0 1013.7 -0.8 78
2019-06-17 05:00:00 19.2 2 Norte 6 Nordeste 0 1013.8 -1.1 76
2019-06-17 04:00:00 19.8 4 Nordeste 6 Nordeste 0 1014.3 -0.8 76
2019-06-17 03:00:00 19.3 4 Norte 8 Norte 0 1014.5 -0.7 69
2019-06-17 02:00:00 18.7 4 Noroeste 10 Noroeste 0 1014.9 0.1 62
2019-06-17 01:00:00 19.6 7 Noroeste 11 Noroeste 0 1015.1 0.8 69
2019-06-17 00:00:00 20.4 5 Noroeste 12 Oeste 0 1015.2 1.2 73
2019-06-16 23:00:00 21 5 Oeste 10 Oeste 0 1014.8 0.9 71
2019-06-16 22:00:00 22.5 2 Este 10 Sudeste 0 1014.3 0.5 57
2019-06-16 21:00:00 23.7 8 Este 23 Este 0 1014 0.1 56
2019-06-16 20:00:00 25 14 Este 29 Este 0 1013.9 -0.2 50
2019-06-16 19:00:00 26 16 Sudeste 36 Este 0 1013.8 -0.9 50
2019-06-16 18:00:00 25.7 23 Este 38 Este 0 1013.9 -1.1 49
2019-06-16 17:00:00 26.2 21 Este 39 Este 0 1014.1 -1 47
2019-06-16 16:00:00 24.4 19 Sudeste 38 Este 0 1014.7 -0.4 54
2019-06-16 15:00:00 24.3 19 Sudeste 36 Este 0 1015 -0.4 55
2019-06-16 14:00:00 25.1 18 Sudeste 32 Sudeste 0 1015.1 -0.5 53
2019-06-16 13:00:00 26.4 18 Sudeste 31 Sudeste 0 1015.1 -0.7 38
2019-06-16 12:00:00 25.9 17 Sudeste 28 Sudeste 0 1015.4 -0.1 32
2019-06-16 11:00:00 25.9 14 Este 23 Sudeste 0 1015.6 0.5 28
2019-06-16 10:00:00 24.5 8 Sudeste 18 Sudeste 0 1015.8 1.6 32
2019-06-16 09:00:00 22.5 5 Este 10 Este 0 1015.5 1.7 47
2019-06-16 08:00:00 19.8 3 Norte 8 Nordeste 0 1015.1 1.7 48
2019-06-16 07:00:00 17.4 5 Nordeste 9 Nordeste 0 1014.2 0.4 61
2019-06-16 06:00:00 17.4 4 Norte 9 Norte 0 1013.8 -0.3 62
2019-06-16 05:00:00 17.1 4 Norte 8 Noroeste 0 1013.4 -1.1 60
2019-06-16 04:00:00 18.4 4 Norte 8 Nordeste 0 1013.8 -1.1 60
2019-06-16 03:00:00 18.9 3 Nordeste 7 Nordeste 0 1014.1 -0.5 68
2019-06-16 02:00:00 19.3 3 Nordeste 6 Norte 0 1014.5 0.3 66
2019-06-16 01:00:00 19.6 5 Norte 8 Norte 0 1014.9 1.2 66
2019-06-16 00:00:00 20 3 Este 5 Este 0 1014.6 1.5 71
2019-06-15 23:00:00 20.5 3 Este 6 Sudeste 0 1014.2 1.3 70
2019-06-15 22:00:00 21 3 Sur 10 Sudoeste 0 1013.7 1 67
2019-06-15 21:00:00 22.2 5 Sudeste 16 Sur 0 1013.1 0.2 63
2019-06-15 20:00:00 23.5 8 Sur 14 Sudeste 0 1012.9 -0.4 55
2019-06-15 19:00:00 24.6 9 Sudeste 15 Sudeste 0 1012.7 -1.1 42
2019-06-15 18:00:00 25.1 8 Sudeste 17 Sur 0 1012.9 -1.3 35
2019-06-15 17:00:00 25.3 8 Sur 19 Sur 0 1013.3 -1.1 40
2019-06-15 16:00:00 24.3 10 Sur 23 Sur 0 1013.8 -0.7 44
2019-06-15 15:00:00 24.7 11 Sur 24 Sur 0 1014.2 -0.1 48
2019-06-15 14:00:00 24.5 12 Sur 29 Sudeste 0 1014.4 0.2 52
2019-06-15 13:00:00 24.8 17 Sudeste 29 Sudeste 0 1014.5 0.6 43
2019-06-15 12:00:00 26 13 Sudeste 23 Sudeste 0 1014.3 0.9 31
2019-06-15 11:00:00 25.3 5 Sur 14 Sudoeste 0 1014.2 1.5 32
2019-06-15 10:00:00 24.4 7 Sur 13 Sudeste 0 1013.9 1.8 35
2019-06-15 09:00:00 24.1 4 Este 9 Sudeste 0 1013.4 1.7 46
2019-06-15 08:00:00 20.7 0 Calma 7 Nordeste 0 1012.7 1.4 56
2019-06-15 07:00:00 18.4 0 Calma 11 Nordeste 0 1012.1 1.5 62
2019-06-15 06:00:00 19.4 5 Norte 11 Nordeste 0 1011.7 1.2 70
2019-06-15 05:00:00 19 3 Sur 11 Este 0 1011.3 0.9 61
2019-06-15 04:00:00 19.3 4 Sudoeste 8 Noroeste 0 1010.6 0.4 57
2019-06-15 03:00:00 20 3 Norte 7 Noroeste 0 1010.5 0.7 61
2019-06-15 02:00:00 20.5 4 Norte 6 Este 0 1010.4 1.1 60
2019-06-15 01:00:00 20.9 2 Sudeste 10 Este 0 1010.2 1.6 62
2019-06-15 00:00:00 21.5 5 Sudeste 9 Este 0 1009.8 1.7 63
2019-06-14 23:00:00 22.3 6 Este 9 Sudeste 0 1009.3 1.5 57
2019-06-14 22:00:00 23.2 2 Sur 15 Sudoeste 0 1008.6 1 48
2019-06-14 21:00:00 24.6 7 Sudoeste 21 Sudoeste 0 1008.1 0.3 46
2019-06-14 20:00:00 25.8 9 Sudoeste 26 Sur 0 1007.8 -0.2 42
2019-06-14 19:00:00 25.9 17 Sudoeste 36 Sudoeste 0 1007.6 -0.7 41
2019-06-14 18:00:00 26.8 19 Sudoeste 40 Sudoeste 0 1007.8 -0.5 36
2019-06-14 17:00:00 27.8 15 Sudoeste 35 Sudoeste 0 1008 -1.1 36
2019-06-14 16:00:00 28.2 17 Sudoeste 37 Sudoeste 0 1008.3 -1.2 33
2019-06-14 15:00:00 27.7 12 Sur 22 Sur 0 1008.3 -1.3 39
2019-06-14 14:00:00 25.6 9 Sur 24 Sudeste 0 1009.1 -0.3 51
2019-06-14 13:00:00 25.2 13 Sudoeste 21 Sudoeste 0 1009.5 0.6 57
2019-06-14 12:00:00 25.1 8 Sur 15 Sur 0 1009.6 1.3 56
2019-06-14 11:00:00 23.8 7 Sudeste 15 Sudeste 0 1009.4 1.5 63
2019-06-14 10:00:00 23.1 3 Sur 9 Noroeste 0 1008.9 1.7 70
2019-06-14 09:00:00 21 3 Nordeste 10 Oeste 0 1008.3 1.1 81
2019-06-14 08:00:00 20.2 7 Oeste 14 Sudoeste 0 1007.9 1.2 83
2019-06-14 07:00:00 20.2 5 Este 17 Oeste 2.6 1007.2 0.8 81
2019-06-14 06:00:00 20.9 11 Sudoeste 25 Sur 0 1007.2 -0.1 74
2019-06-14 05:00:00 20.9 8 Sudoeste 18 Sudoeste 0 1006.7 -1.3 71
2019-06-14 04:00:00 20.1 3 Sudoeste 13 Noroeste 0 1006.4 -1.4 67
2019-06-14 03:00:00 20.6 6 Oeste 19 Oeste 0 1007.3 -0.5 66
2019-06-14 02:00:00 20.8 8 Oeste 19 Oeste 0 1008 0.4 63
2019-06-14 01:00:00 20.5 7 Oeste 20 Oeste 0 1007.8 0.4 65
2019-06-14 00:00:00 20.5 8 Oeste 14 Oeste 0 1007.8 1.2 66
2019-06-13 23:00:00 21 3 Este 14 Sudeste 0 1007.6 2 65
2019-06-13 22:00:00 21.4 9 Sudeste 29 Sudeste 0 1007.4 2.3 61
2019-06-13 21:00:00 22.2 15 Sudeste 31 Este 0 1006.6 1.3 58
2019-06-13 20:00:00 23.2 19 Sudeste 36 Este 0 1005.6 0.2 56
2019-06-13 19:00:00 23.7 25 Sudeste 45 Este 0 1005.1 -0.6 56
2019-06-13 18:00:00 24.8 24 Sudeste 44 Sudeste 0 1005.3 -0.8 53
2019-06-13 17:00:00 25.1 26 Sudeste 44 Sudeste 0 1005.4 -1.2 51
2019-06-13 16:00:00 24.6 28 Sudeste 45 Sudeste 0 1005.7 -1.2 53
2019-06-13 15:00:00 25.3 28 Sudeste 43 Sudeste 0 1006.1 -1.2 50
2019-06-13 14:00:00 24.8 25 Sudeste 45 Sudeste 0 1006.6 -1.1 54
2019-06-13 13:00:00 25.6 25 Sudeste 45 Sudeste 0 1006.9 -1.4 48
2019-06-13 12:00:00 25.4 21 Este 40 Este 0 1007.3 -0.8 46
2019-06-13 11:00:00 25.2 17 Este 35 Este 0 1007.7 -0.9 44
2019-06-13 10:00:00 22.5 15 Nordeste 28 Nordeste 0 1008.3 0.5 55
2019-06-13 09:00:00 21.8 15 Este 24 Nordeste 0 1008.1 0.3 60
2019-06-13 08:00:00 20.8 4 Este 20 Nordeste 0 1008.6 1 64
2019-06-13 07:00:00 19.8 3 Nordeste 14 Nordeste 0 1007.8 -0.1 66
2019-06-13 06:00:00 20.2 4 Nordeste 21 Nordeste 0 1007.8 -0.6 64
2019-06-13 05:00:00 19.7 3 Noroeste 9 Nordeste 0 1007.6 -1.3 64
2019-06-13 04:00:00 20 2 Nordeste 15 Este 0 1007.9 -1.8 64
2019-06-13 03:00:00 20 6 Este 14 Nordeste 0 1008.4 -1.3 65
2019-06-13 02:00:00 20.1 7 Nordeste 12 Nordeste 0 1008.9 -0.6 65
2019-06-13 01:00:00 20.1 6 Nordeste 13 Este 0 1009.7 0.8 65
2019-06-13 00:00:00 20.2 6 Este 19 Este 0 1009.7 1.2 64
2019-06-12 23:00:00 20.7 13 Este 23 Nordeste 0 1009.5 1.3 64
2019-06-12 22:00:00 20.6 13 Este 30 Sudeste 0 1008.9 0.6 72
2019-06-12 21:00:00 21.1 16 Sudeste 30 Sudeste 0 1008.5 -0.5 69
2019-06-12 20:00:00 22.4 18 Este 30 Este 0 1008.2 -1.3 60
2019-06-12 19:00:00 22.4 19 Sudeste 37 Este 0 1008.3 -1.4 58
2019-06-12 18:00:00 22.7 21 Sudeste 41 Sudeste 0 1009 -0.7 56
2019-06-12 17:00:00 22.2 26 Sudeste 40 Sudeste 0 1009.5 -0.7 56
2019-06-12 16:00:00 22.8 26 Sudeste 44 Sudeste 0 1009.7 -0.8 54
2019-06-12 15:00:00 22.8 27 Sudeste 42 Sudeste 0 1009.7 -1.1 52
2019-06-12 14:00:00 22.9 26 Sudeste 41 Sudeste 0 1010.2 -0.8 51
2019-06-12 13:00:00 23.2 22 Sudeste 38 Sudeste 0 1010.5 -0.6 47
2019-06-12 12:00:00 23.6 17 Sudeste 30 Este 0 1010.8 -0.2 44
2019-06-12 11:00:00 22.7 15 Sudeste 28 Sudeste 0 1011 0.4 43
2019-06-12 10:00:00 22.3 14 Este 27 Este 0 1011.1 0.8 41
2019-06-12 09:00:00 20.9 14 Este 26 Este 0 1011 0.8 45
2019-06-12 08:00:00 19.8 10 Nordeste 32 Este 0 1010.6 0.8 46
2019-06-12 07:00:00 19.1 19 Este 33 Este 0 1010.3 0.6 48
2019-06-12 06:00:00 19.2 14 Este 26 Este 0 1010.2 0.4 52
2019-06-12 05:00:00 19.2 9 Este 22 Este 0 1009.8 0 56
2019-06-12 04:00:00 19.4 14 Este 27 Este 0 1009.7 -0.3 59
2019-06-12 03:00:00 19.4 16 Este 29 Este 0 1009.8 -0.1 62
2019-06-12 02:00:00 19.2 12 Este 19 Este 0 1009.8 0.9 64
2019-06-12 01:00:00 19.4 9 Nordeste 36 Este 0 1010 2.6 61
2019-06-12 00:00:00 19.7 16 Este 35 Este 0 1009.9 3.4 61
2019-06-11 23:00:00 20 21 Este 43 Este 0 1008.9 3.6 65
2019-06-11 22:00:00 21 29 Este 51 Este 0 1007.4 2.7 65
2019-06-11 21:00:00 21.7 18 Este 30 Este 0 1006.5 2.2 67
2019-06-11 20:00:00 23.1 15 Este 34 Este 0 1005.3 1 60
2019-06-11 19:00:00 23.3 19 Sudeste 30 Sudeste 0 1004.7 0.1 58
2019-06-11 18:00:00 23.4 20 Sudeste 31 Sudeste 0 1004.3 -0.6 58
2019-06-11 17:00:00 23.5 18 Sudeste 24 Sudeste 0 1004.3 -1 55
2019-06-11 16:00:00 24.3 12 Sudeste 22 Sudeste 0 1004.6 -1 53
2019-06-11 15:00:00 24.4 8 Sudeste 21 Sudeste 0 1004.9 -0.9 53
2019-06-11 14:00:00 23.8 11 Sudeste 21 Sur 0 1005.3 -0.5 62
2019-06-11 13:00:00 23.5 10 Sur 20 Sur 0 1005.6 -0.4 62
2019-06-11 12:00:00 23.3 11 Sudeste 22 Sur 0 1005.8 0 65
2019-06-11 11:00:00 23.3 9 Sur 18 Sur 0 1005.8 -0.1 60
2019-06-11 10:00:00 23.1 5 Sur 12 Oeste 0 1006 0.4 62
2019-06-11 09:00:00 22.2 3 Sur 8 Oeste 0 1005.8 0.2 67
2019-06-11 08:00:00 20.2 2 Norte 6 Noroeste 0 1005.9 0 74
2019-06-11 07:00:00 18.3 6 Norte 12 Norte 0 1005.6 -0.9 77
2019-06-11 06:00:00 17.8 4 Norte 9 Norte 0 1005.6 -1.5 76
2019-06-11 05:00:00 18.3 5 Norte 9 Norte 0 1005.9 -1.7 73
2019-06-11 04:00:00 17.3 0 Calma 6 Norte 0 1006.5 -1.8 68
2019-06-11 03:00:00 18.4 2 Norte 6 Norte 0 1007.1 -1.3 71
2019-06-11 02:00:00 19.6 4 Nordeste 7 Nordeste 0 1007.6 -1 75
2019-06-11 01:00:00 19.6 4 Noroeste 8 Noroeste 0 1008.3 0 75
2019-06-11 00:00:00 20.2 3 Este 12 Este 0 1008.4 0.7 75
2019-06-10 23:00:00 20.5 3 Este 16 Este 0 1008.6 0.9 75
2019-06-10 22:00:00 21.1 8 Este 24 Sudeste 0 1008.3 0.5 72
2019-06-10 21:00:00 23 14 Sudeste 22 Sudeste 0 1007.7 -0.7 63
2019-06-10 20:00:00 24.3 11 Sudeste 17 Sudeste 0 1007.7 -1.2 54
2019-06-10 19:00:00 27.1 6 Sudeste 14 Sur 0 1007.8 -1.7 28
2019-06-10 18:00:00 27.3 4 Sur 18 Sudoeste 0 1008.4 -1.2 26
2019-06-10 17:00:00 26.6 6 Sur 19 Sur 0 1008.9 -1.4 31
2019-06-10 16:00:00 25.6 7 Sur 19 Sudoeste 0 1009.5 -1 43
2019-06-10 15:00:00 26.2 6 Sur 16 Sudoeste 0 1009.6 -0.3 43
2019-06-10 14:00:00 25.5 9 Sudoeste 19 Sur 0 1010.3 0.3 51
2019-06-10 13:00:00 25.7 8 Sudoeste 23 Sur 0 1010.5 0.1 49
2019-06-10 12:00:00 26.7 14 Sur 27 Sur 0 1009.9 -0.2 47
2019-06-10 11:00:00 29.8 10 Norte 26 Norte 0 1010 0.3 16
2019-06-10 10:00:00 27.9 11 Noroeste 22 Norte 0 1010.4 1.1 19
2019-06-10 09:00:00 25.3 11 Oeste 17 Oeste 0 1010.1 1.2 26
2019-06-10 08:00:00 21.5 8 Noroeste 17 Noroeste 0 1009.7 0.7 36
2019-06-10 07:00:00 19.9 9 Noroeste 16 Noroeste 0 1009.3 0.3 45
2019-06-10 06:00:00 18.7 3 Sur 6 Sudoeste 0 1008.9 -0.4 78
2019-06-10 05:00:00 18.6 0 Calma 7 Norte 0 1009 -0.6 77
2019-06-10 04:00:00 19.2 2 Nordeste 6 Nordeste 0 1009 -1.1 76
2019-06-10 03:00:00 19.3 3 Nordeste 5 Nordeste 0 1009.3 -1.1 78
2019-06-10 02:00:00 19.4 0 Calma 8 Nordeste 0 1009.6 -1 76
2019-06-10 01:00:00 19.8 4 Este 9 Este 0 1010.1 -0.3 77
2019-06-10 00:00:00 20.2 3 Sudeste 12 Este 0 1010.4 0.2 75
2019-06-09 23:00:00 20.6 8 Este 17 Nordeste 0 1010.6 -0.1 75
2019-06-09 22:00:00 20.9 9 Este 22 Este 0 1010.4 -0.1 74
2019-06-09 21:00:00 21.7 11 Este 19 Este 0 1010.2 -0.6 70
2019-06-09 20:00:00 22.7 5 Sudoeste 23 Sur 0 1010.7 -0.6 67
2019-06-09 19:00:00 23.5 7 Sudeste 22 Sudeste 0 1010.5 -1.2 64
2019-06-09 18:00:00 23.8 8 Sudeste 19 Sudeste 0 1010.8 -1.5 62
2019-06-09 17:00:00 24.1 10 Sudeste 20 Sudeste 0 1011.3 -1.5 59
2019-06-09 16:00:00 24.1 9 Sudeste 21 Sur 0 1011.7 -1.4 56
2019-06-09 15:00:00 23.6 12 Sur 23 Sur 0 1012.3 -1 56
2019-06-09 14:00:00 23 9 Sudoeste 23 Sur 0 1012.8 -0.4 57
2019-06-09 13:00:00 23.5 12 Sudoeste 24 Sudoeste 0 1013.1 -0.4 53
2019-06-09 12:00:00 23.2 13 Sur 22 Sur 0 1013.3 -0.3 56
2019-06-09 11:00:00 23.5 9 Sur 18 Sur 0 1013.2 0 49
2019-06-09 10:00:00 22.9 10 Sudoeste 18 Sudoeste 0 1013.5 0.3 57
2019-06-09 09:00:00 21.6 8 Oeste 12 Oeste 0 1013.6 0.2 59
2019-06-09 08:00:00 18.7 3 Noroeste 5 Noroeste 0 1013.2 0 58
2019-06-09 07:00:00 18 3 Noroeste 7 Noroeste 0 1013.2 -0.6 60
2019-06-09 06:00:00 18.5 3 Oeste 6 Noroeste 0 1013.4 -1.3 58
2019-06-09 05:00:00 18.8 2 Noroeste 6 Norte 0 1013.2 -1.9 55
2019-06-09 04:00:00 19.6 2 Nordeste 11 Norte 0 1013.8 -1.5 53
2019-06-09 03:00:00 19.9 5 Norte 10 Norte 0 1014.7 -0.7 53
2019-06-09 02:00:00 20.7 4 Norte 7 Noroeste 0 1015.1 -0.6 50
2019-06-09 01:00:00 20.2 4 Noroeste 8 Norte 0 1015.3 0.4 59
2019-06-09 00:00:00 21.1 3 Norte 13 Este 0 1015.4 1.2 61
2019-06-08 23:00:00 21.5 7 Este 22 Sudeste 0 1015.7 1.7 59
2019-06-08 22:00:00 21.9 12 Este 32 Este 0 1014.9 1.1 58
2019-06-08 21:00:00 22.9 16 Este 33 Este 0 1014.2 0.4 57
2019-06-08 20:00:00 24 16 Este 41 Sudeste 0 1014 0 57
2019-06-08 19:00:00 24.8 22 Sudeste 39 Sudeste 0 1013.8 -0.6 54
2019-06-08 18:00:00 25.8 22 Sudeste 46 Sudeste 0 1013.8 -0.8 50
2019-06-08 17:00:00 26.7 24 Sudeste 45 Sudeste 0 1014 -1.1 46
2019-06-08 16:00:00 26.9 23 Sudeste 47 Sudeste 0 1014.4 -1.4 46
2019-06-08 15:00:00 26.7 26 Sudeste 50 Sudeste 0 1014.6 -1.2 46
2019-06-08 14:00:00 27.1 27 Este 50 Sudeste 0 1015.1 -- 43
2019-06-08 13:00:00 26.5 28 Sudeste 48 Este 0 1015.8 0.1 44
2019-06-08 12:00:00 26.8 23 Este -- -- -- 1015.8 0.6 39
2019-06-08 11:00:00 -- -- -- -- -- -- -- -- --
2019-06-08 10:00:00 26.2 19 Este 32 Este 0 1015.7 1.2 27
2019-06-08 09:00:00 23.8 3 Sudeste 18 Este 0 1015.2 1.1 43
2019-06-08 08:00:00 19.9 0 Calma 10 Norte 0 1015 1 61
2019-06-08 07:00:00 18.4 6 Nordeste 10 Nordeste 0 1014.5 0.1 68
2019-06-08 06:00:00 18.7 6 Norte 9 Nordeste 0 1014.1 -0.7 74
2019-06-08 05:00:00 18.9 2 Norte 9 Norte 0 1014 -0.7 73
2019-06-08 04:00:00 20 6 Norte 9 Norte 0 1014.4 0.1 78
2019-06-08 03:00:00 20.3 5 Nordeste 10 Este 0 1014.8 0.6 77
2019-06-08 02:00:00 20.3 5 Nordeste 13 Sudeste 0 1014.7 1.4 76
2019-06-08 01:00:00 20.4 4 Nordeste 13 Nordeste 0 1014.3 2 75
2019-06-08 00:00:00 20.7 7 Este 15 Este 0 1014.2 2.2 72
2019-06-07 23:00:00 20.9 10 Este 17 Este 0 1013.3 1.7 69
2019-06-07 22:00:00 21.4 7 Este 18 Sudeste 0 1012.3 1.2 65
2019-06-07 21:00:00 22.7 8 Sudeste 20 Sudeste 0 1012 0.9 61
2019-06-07 20:00:00 23.4 12 Sudeste 19 Sudeste 0 1011.6 0.3 55
2019-06-07 19:00:00 24.2 14 Sudeste 22 Sudeste 0 1011.1 -0.3 52
2019-06-07 18:00:00 25.1 13 Sudeste 19 Sudeste 0 1011.1 -0.5 41
2019-06-07 17:00:00 25.7 8 Sur 17 Este 0 1011.3 -0.5 32
2019-06-07 16:00:00 24.8 8 Sur 19 Sudeste 0 1011.4 -0.4 35
2019-06-07 15:00:00 24.6 6 Sudeste 19 Sudoeste 0 1011.6 0.4 44
2019-06-07 14:00:00 23.8 10 Sudoeste 23 Sur 0 1011.8 1.1 55
2019-06-07 13:00:00 23.4 12 Sudeste 22 Sur 0 1011.8 1.3 60
2019-06-07 12:00:00 24 11 Sur 22 Sur 0 1011.2 1.3 47
2019-06-07 11:00:00 23.1 8 Sudeste 18 Sudeste 0 1010.7 1.7 54
2019-06-07 10:00:00 22.7 4 Oeste 14 Sur 0 1010.5 2.6 58
2019-06-07 09:00:00 22 5 Sudeste 11 Sur 0 1009.9 2.2 60
2019-06-07 08:00:00 19.9 4 Nordeste 8 Norte 0 1009 1.8 57
2019-06-07 07:00:00 16.6 0 Calma 12 Noroeste 0 1007.9 0.6 58
2019-06-07 06:00:00 16.8 0 Calma 8 Norte 0 1007.7 0.7 66
2019-06-07 05:00:00 17.1 6 Norte 9 Noroeste 0 1007.2 -0.2 66
2019-06-07 04:00:00 18.1 3 Nordeste 10 Norte 0 1007.3 -0.6 70
2019-06-07 03:00:00 18.8 5 Nordeste 14 Nordeste 0 1007 -1.1 71
2019-06-07 02:00:00 19.4 6 Nordeste 15 Nordeste 0 1007.4 -0.4 69
2019-06-07 01:00:00 19.6 9 Este 16 Este 0 1007.9 1 71
2019-06-07 00:00:00 19.7 9 Este 19 Este 0 1008.1 1.6 71
2019-06-06 23:00:00 19.9 11 Este 19 Este 0 1007.8 1.6 70
2019-06-06 22:00:00 20.5 12 Este 23 Este 0 1006.9 0.3 69
2019-06-06 21:00:00 23 10 Este 18 Sudeste 0 1006.5 -0.6 52
2019-06-06 20:00:00 23.9 10 Este 17 Sudeste 0 1006.2 -1.3 48
2019-06-06 19:00:00 23.3 9 Sudeste 21 Sudeste 0 1006.6 -1.4 53
2019-06-06 18:00:00 23.5 10 Sudeste 23 Sudeste 0 1007.1 -1.5 58
2019-06-06 17:00:00 24 11 Sudeste 23 Sudeste 0 1007.5 -1.7 54
2019-06-06 16:00:00 24 11 Sur 21 Sur 0 1008 -1.5 57
2019-06-06 15:00:00 24.5 12 Sudeste 24 Sudeste 0 1008.6 -0.8 50
2019-06-06 14:00:00 24.1 14 Sudeste 27 Sudeste 0 1009.2 -0.5 48
2019-06-06 13:00:00 24.6 13 Sudeste 27 Sudeste 0 1009.5 -0.2 51
2019-06-06 12:00:00 24.2 13 Sur 20 Sur 0 1009.4 -0.3 46
2019-06-06 11:00:00 24.3 8 Sur 16 Sudeste 0 1009.7 0.3 39
2019-06-06 10:00:00 23.6 7 Sur 13 Sur 0 1009.7 0.7 46
2019-06-06 09:00:00 22.7 4 Sur 9 Sur 0 1009.7 1.1 52
2019-06-06 08:00:00 20.4 4 Nordeste 8 Norte 0 1009.4 0.8 54
2019-06-06 07:00:00 17.9 3 Nordeste 11 Nordeste 0 1009 0.4 64
2019-06-06 06:00:00 18 4 Norte 7 Nordeste 0 1008.6 -0.3 75
2019-06-06 05:00:00 18.3 6 Norte 9 Norte 0 1008.6 -0.6 72
2019-06-06 04:00:00 17.6 3 Noroeste 5 Noroeste 0 1008.6 -0.5 62
2019-06-06 03:00:00 18.5 4 Norte 9 Noroeste 0 1008.9 0.1 63
2019-06-06 02:00:00 19.5 2 Nordeste 6 Sudeste 0 1009.2 0.9 68
2019-06-06 01:00:00 20.4 4 Sudeste 17 Este 0 1009.1 1.7 66
2019-06-06 00:00:00 21.3 12 Este 23 Este 0 1008.8 1.8 65
2019-06-05 23:00:00 22.2 12 Este 23 Este 0 1008.3 1.8 59
2019-06-05 22:00:00 22.7 13 Este 23 Este 0 1007.4 1.3 50
2019-06-05 21:00:00 23.5 10 Este 19 Sudeste 0 1007 1.1 44
2019-06-05 20:00:00 24.8 9 Sudeste 20 Sudeste 0 1006.5 1.1 36
2019-06-05 19:00:00 24.7 6 Sudoeste 36 Sudoeste 0 1006.1 0.7 46
2019-06-05 18:00:00 24.9 19 Sudoeste 42 Sudoeste 0 1005.9 0.3 46
2019-06-05 17:00:00 32.6 8 Oeste 33 Noroeste 0 1005.4 -0.4 7
2019-06-05 16:00:00 32.2 19 Oeste 48 Oeste 0 1005.4 -0.6 7
2019-06-05 15:00:00 32.1 25 Oeste 48 Oeste 0 1005.6 0.2 9
2019-06-05 14:00:00 31.9 26 Oeste 51 Oeste 0 1005.8 0.4 9
2019-06-05 13:00:00 30.1 24 Noroeste 49 Noroeste 0 1006 0.8 9
2019-06-05 12:00:00 30.1 26 Noroeste 52 Noroeste 0 1005.4 0.2 12
2019-06-05 11:00:00 28.4 23 Noroeste 47 Noroeste 0 1005.4 1 20
2019-06-05 10:00:00 26.1 17 Oeste 40 Oeste 0 1005.2 1.3 30
2019-06-05 09:00:00 22.5 4 Sudoeste 13 Oeste 0 1005.2 2.2 66
2019-06-05 08:00:00 21 3 Nordeste 7 Este 0 1004.4 1 66
2019-06-05 07:00:00 18.5 4 Este 6 Nordeste 0 1003.9 0.2 71
2019-06-05 06:00:00 18.6 0 Calma 8 Nordeste 0 1003 -0.6 70
2019-06-05 05:00:00 18.8 2 Nordeste 10 Norte 0 1003.4 -0.9 70
2019-06-05 04:00:00 18.6 6 Norte 8 Norte 0 1003.7 -0.9 69
2019-06-05 03:00:00 18.4 3 Noroeste 9 Noroeste 0 1003.6 -1.4 66
2019-06-05 02:00:00 19.2 5 Norte 9 Noroeste 0 1004.3 -0.9 70
2019-06-05 01:00:00 20 6 Nordeste 14 Este 0 1004.6 -0.3 71
2019-06-05 00:00:00 20.4 6 Nordeste 15 Este 0 1005 0.1 69
2019-06-04 23:00:00 20.6 7 Este 14 Este 0 1005.2 0.2 69
2019-06-04 22:00:00 20.9 8 Sudeste 15 Sudeste 0 1004.9 -0.2 67
2019-06-04 21:00:00 21.9 9 Sudeste 19 Sudeste 0 1004.9 -1.1 57
2019-06-04 20:00:00 23.2 11 Sudeste 21 Este 0 1005 -1.6 54
2019-06-04 19:00:00 23.8 8 Este 21 Sudeste 0 1005.1 -2.4 53
2019-06-04 18:00:00 24 10 Este 20 Sudeste 0 1006 -2.2 54
2019-06-04 17:00:00 24.4 9 Sudeste 21 Este 0 1006.6 -2.6 54
2019-06-04 16:00:00 25.6 5 Sudoeste 19 Sudoeste 0 1007.5 -2.2 43
2019-06-04 15:00:00 24.8 11 Sur 23 Sur 0 1008.2 -1.9 40
2019-06-04 14:00:00 23.7 9 Sur 22 Sur 0 1009.2 -0.7 55
2019-06-04 13:00:00 23.5 11 Sur 21 Sur 0 1009.7 -0.5 57
2019-06-04 12:00:00 23.4 12 Sur 21 Sur 0 1010.1 0.1 61
2019-06-04 11:00:00 23.3 9 Sur 16 Sudeste 0 1009.9 0.1 58
2019-06-04 10:00:00 22.3 6 Sur 14 Sudoeste 0 1010.2 0.8 63
2019-06-04 09:00:00 21.6 4 Sudoeste 8 Sudoeste 0 1010 0.8 66
2019-06-04 08:00:00 19.1 2 Norte 8 Norte 0 1009.8 0.6 54
2019-06-04 07:00:00 18 5 Nordeste 9 Nordeste 0 1009.4 -0.6 55
2019-06-04 06:00:00 17.3 3 Nordeste 6 Nordeste 0 1009.2 -1.4 54
2019-06-04 05:00:00 17.5 0 Calma 10 Nordeste 0 1009.2 -2.1 53
2019-06-04 04:00:00 18 5 Norte 9 Norte 0 1010 -1.9 54
2019-06-04 03:00:00 18.2 0 Calma 6 Norte 0 1010.6 -1.4 51
2019-06-04 02:00:00 18.2 3 Noroeste 5 Nordeste 0 1011.3 -0.8 55
2019-06-04 01:00:00 18.8 0 Calma 5 Nordeste 0 1011.9 -0.1 56
2019-06-04 00:00:00 20.1 3 Norte 5 Norte 0 1012 0.1 61
2019-06-03 23:00:00 20.6 2 Noroeste 8 Oeste 0 1012.1 0.1 61
2019-06-03 22:00:00 21.5 4 Oeste 8 Oeste 0 1012 0.1 57
2019-06-03 21:00:00 23.2 4 Sur 11 Sudoeste 0 1011.9 -0.8 48
2019-06-03 20:00:00 24 7 Sur 13 Sudoeste 0 1012 -1 39
2019-06-03 19:00:00 26 7 Sur 12 Sudoeste 0 1011.9 -1.9 34
2019-06-03 18:00:00 23.8 7 Sur 16 Sudoeste 0 1012.7 -1.6 46
2019-06-03 17:00:00 25.2 9 Sudoeste 17 Sur 0 1013 -1.8 48
2019-06-03 16:00:00 24.1 9 Sur 23 Sur 0 1013.8 -1.5 55
2019-06-03 15:00:00 24.1 10 Sudoeste 21 Sudeste 0 1014.3 -1.3 57
2019-06-03 14:00:00 23.4 10 Sur 21 Sur 0 1014.8 -0.5 57
2019-06-03 13:00:00 23.6 10 Sur 20 Sudeste 0 1015.3 0 58
2019-06-03 12:00:00 23.3 8 Sudeste 20 Sur 0 1015.6 0.8 52
2019-06-03 11:00:00 23.1 9 Sur 16 Sur 0 1015.3 1 54
2019-06-03 10:00:00 22.7 7 Sur 13 Sur 0 1015.3 1.3 55
2019-06-03 09:00:00 22.5 5 Sudeste 11 Este 0 1014.8 1.2 50
2019-06-03 08:00:00 21 3 Este 8 Nordeste 0 1014.3 0.2 34
2019-06-03 07:00:00 17.6 4 Nordeste 8 Este 0 1014 -0.5 36
2019-06-03 06:00:00 16.3 3 Sudeste 7 Norte 0 1013.6 -1.3 44
2019-06-03 05:00:00 16.8 3 Norte 7 Norte 0 1014.1 -1.5 41
2019-06-03 04:00:00 17 3 Norte 6 Norte 0 1014.5 -1.4 43
2019-06-03 03:00:00 17.3 2 Nordeste 9 Noroeste 0 1014.9 -1 42
2019-06-03 02:00:00 18.4 0 Calma 9 Nordeste 0 1015.6 0 37
2019-06-03 01:00:00 18.2 0 Calma 5 Nordeste 0 1015.9 0.9 43
2019-06-03 00:00:00 19.6 3 Norte 8 Norte 0 1015.9 1.4 50
2019-06-02 23:00:00 20.3 2 Norte 9 Este 0 1015.6 1.1 53
2019-06-02 22:00:00 21.1 3 Sudeste 6 Sudeste 0 1015 0.3 54
2019-06-02 21:00:00 22.7 3 Sudeste 14 Sur 0 1014.5 -0.5 45
2019-06-02 20:00:00 23.7 9 Sur 18 Sudeste 0 1014.5 -0.7 41
2019-06-02 19:00:00 24.6 9 Sur 20 Sudeste 0 1014.7 -0.6 37
2019-06-02 18:00:00 25.2 12 Sur 22 Sudeste 0 1015 -0.6 34
2019-06-02 17:00:00 25.2 11 Sudeste 23 Sudeste 0 1015.2 -0.7 32
2019-06-02 16:00:00 25.3 12 Sudeste 26 Sudeste 0 1015.3 -1 26
2019-06-02 15:00:00 26.1 13 Sudeste 27 Sudeste 0 1015.6 -0.8 23
2019-06-02 14:00:00 26.7 12 Sudeste 28 Sudeste 0 1015.9 -0.4 22
2019-06-02 13:00:00 26.7 14 Sudeste 28 Sudeste 0 1016.3 -0.1 17
2019-06-02 12:00:00 26.8 18 Sudeste 27 Sudeste 0 1016.4 0.3 17
2019-06-02 11:00:00 26.6 15 Sudeste 22 Sudeste 0 1016.3 0.3 14
2019-06-02 10:00:00 25.4 9 Sudeste 16 Sudeste 0 1016.4 0.5 24
2019-06-02 09:00:00 23.6 2 Noroeste 7 Noroeste 0 1016.1 0.2 25
2019-06-02 08:00:00 19.3 5 Norte 8 Norte 0 1016 0 33
2019-06-02 07:00:00 16.8 2 Norte 9 Nordeste 0 1015.9 -0.5 40
2019-06-02 06:00:00 17.4 6 Norte 12 Noroeste 0 1015.9 -0.8 36
2019-06-02 05:00:00 15.9 4 Noroeste 8 Norte 0 1016 -1.2 42
2019-06-02 04:00:00 17.2 6 Norte 10 Nordeste 0 1016.4 -1.1 38
2019-06-02 03:00:00 16.8 0 Calma 9 Nordeste 0 1016.7 -0.8 42
2019-06-02 02:00:00 17.9 7 Nordeste 9 Norte 0 1017.2 -0.1 43
2019-06-02 01:00:00 17.7 0 Calma 9 Norte 0 1017.5 0.7 50
2019-06-02 00:00:00 19.3 5 Noroeste 8 Noroeste 0 1017.5 0.8 45
2019-06-01 23:00:00 20.7 4 Nordeste 9 Este 0 1017.3 0.9 46
2019-06-01 22:00:00 21.2 5 Este 18 Este 0 1016.8 0.5 42
2019-06-01 21:00:00 23 8 Este 21 Sudeste 0 1016.7 0.1 34
2019-06-01 20:00:00 24 12 Sudeste 31 Sudeste 0 1016.4 -0.5 32
2019-06-01 19:00:00 25.1 17 Este 32 Este 0 1016.3 -0.8 26
2019-06-01 18:00:00 25.2 17 Sudeste 32 Sudeste 0 1016.6 -0.9 26
2019-06-01 17:00:00 25.3 18 Sudeste 37 Sudeste 0 1016.9 -1.1 25
2019-06-01 16:00:00 25.6 22 Sudeste 37 Sudeste 0 1017.1 -1.3 24
2019-06-01 15:00:00 26.8 22 Este 42 Este 0 1017.5 -1.3 23
2019-06-01 14:00:00 26.1 25 Sudeste 41 Este 0 1018 -0.8 24
2019-06-01 13:00:00 25.7 24 Sudeste 39 Este 0 1018.4 -0.2 20
2019-06-01 12:00:00 25.9 20 Sudeste 32 Sudeste 0 1018.8 0.4 19
2019-06-01 11:00:00 25.3 17 Sudeste 28 Este 0 1018.8 0.4 21
2019-06-01 10:00:00 25.7 8 Este 23 Este 0 1018.6 0.5 19
2019-06-01 09:00:00 23.8 8 Este 15 Este 0 1018.4 0.4 21
2019-06-01 08:00:00 19.1 2 Oeste 10 Nordeste 0 1018.4 0.6 34
2019-06-01 07:00:00 16.5 6 Norte 10 Nordeste 0 1018.1 0.1 36
2019-06-01 06:00:00 15.6 2 Nordeste 6 Sudeste 0 1018 -0.3 41
2019-06-01 05:00:00 16.2 4 Norte 7 Noroeste 0 1017.8 -1.2 41
2019-06-01 04:00:00 17.9 3 Oeste 15 Norte 0 1018 -1.3 40
2019-06-01 03:00:00 18.4 5 Norte 16 Nordeste 0 1018.3 -1.1 39
2019-06-01 02:00:00 18.4 4 Norte 8 Norte 0 1019 -0.2 43
2019-06-01 01:00:00 18.8 3 Norte 8 Noroeste 0 1019.3 0.5 58
2019-06-01 00:00:00 18.4 2 Oeste 9 Nordeste 0 1019.4 0.8 69
2019-05-31 23:00:00 20 5 Nordeste 11 Nordeste 0 1019.2 0.6 64
2019-05-31 22:00:00 20.1 5 Este 20 Este 0 1018.8 0.1 63
2019-05-31 21:00:00 21.2 10 Este 21 Este 0 1018.6 -0.5 57
2019-05-31 20:00:00 22.5 11 Sudeste 23 Este 0 1018.6 -0.7 53
2019-05-31 19:00:00 22.3 14 Sudeste 30 Sudeste 0 1018.7 -1.1 54
2019-05-31 18:00:00 22.2 19 Sudeste 34 Sudeste 0 1019.1 -1 54
2019-05-31 17:00:00 23.2 19 Sudeste 35 Sudeste 0 1019.3 -0.9 45
2019-05-31 16:00:00 22.8 21 Sudeste 35 Sudeste 0 1019.8 -0.8 53
2019-05-31 15:00:00 22.7 22 Sudeste 36 Sudeste 0 1020.1 -0.8 55
2019-05-31 14:00:00 23.1 22 Sudeste 39 Este 0 1020.2 -0.8 53
2019-05-31 13:00:00 23.1 19 Sudeste 30 Sudeste 0 1020.6 -0.3 53
2019-05-31 12:00:00 22.8 18 Sudeste 30 Sudeste 0 1020.9 0.4 51
2019-05-31 11:00:00 22.4 18 Sudeste 26 Sudeste 0 1021 0.6 40
2019-05-31 10:00:00 22.9 13 Sudeste 22 Este 0 1020.9 1.1 29
2019-05-31 09:00:00 21.3 10 Este 18 Este 0 1020.5 0.9 40
2019-05-31 08:00:00 18.4 2 Norte 7 Nordeste 0 1020.4 0.7 34
2019-05-31 07:00:00 15.1 2 Nordeste 10 Nordeste 0 1019.8 -0.2 44
2019-05-31 06:00:00 15.5 4 Norte 7 Norte 0 1019.6 -1.2 43
2019-05-31 05:00:00 16.7 3 Nordeste 11 Nordeste 0 1019.7 -1.6 39
2019-05-31 04:00:00 16.1 4 Norte 8 Norte 0 1020 -1.7 47
2019-05-31 03:00:00 16.7 0 Calma 9 Norte 0 1020.8 -1.1 49
2019-05-31 02:00:00 17.3 4 Norte 8 Noroeste 0 1021.3 -0.5 65
2019-05-31 01:00:00 18.7 5 Norte 13 Nordeste 0 1021.7 0.5 62
2019-05-31 00:00:00 18.9 4 Norte 12 Nordeste 0 1021.9 1 62
2019-05-30 23:00:00 19.2 6 Nordeste 13 Este 0 1021.8 1.4 62
2019-05-30 22:00:00 19.5 9 Este 19 Este 0 1021.2 0.7 61
2019-05-30 21:00:00 20.5 12 Este 31 Este 0 1020.9 0.2 57
2019-05-30 20:00:00 21.9 15 Este 27 Este 0 1020.4 -0.7 49
2019-05-30 19:00:00 21.9 17 Sudeste 38 Sudeste 0 1020.5 -0.8 51
2019-05-30 18:00:00 21.9 19 Sudeste 33 Sudeste 0 1020.7 -0.7 50
2019-05-30 17:00:00 22.5 21 Sudeste 34 Sur 0 1021.1 -0.4 48
2019-05-30 16:00:00 22.8 20 Sudeste 32 Sudeste 0 1021.3 -0.4 46
2019-05-30 15:00:00 23.6 19 Sudeste 32 Sudeste 0 1021.4 -0.4 35
2019-05-30 14:00:00 23.3 16 Sudeste 36 Sudeste 0 1021.5 -0.3 38
2019-05-30 13:00:00 22.7 22 Sudeste 36 Sudeste 0 1021.7 0.1 36
2019-05-30 12:00:00 23.7 17 Sudeste 32 Sudeste 0 1021.8 0.5 36
2019-05-30 11:00:00 23.1 15 Este 28 Este 0 1021.8 0.9 40
2019-05-30 10:00:00 22.2 14 Este 26 Sudeste 0 1021.6 1 47
2019-05-30 09:00:00 20.7 12 Este 19 Nordeste 0 1021.3 1.3 54
2019-05-30 08:00:00 17.9 4 Norte 9 Norte 0 1020.9 0.9 58
2019-05-30 07:00:00 15.8 2 Norte 7 Nordeste 0 1020.6 0.5 64
2019-05-30 06:00:00 16.3 5 Nordeste 10 Nordeste 0 1020 -0.3 63
2019-05-30 05:00:00 16.5 3 Norte 7 Norte 0 1020 -0.3 62
2019-05-30 04:00:00 17.3 3 Norte 9 Norte 0 1020.1 -0.2 59
2019-05-30 03:00:00 18 2 Norte 8 Nordeste 0 1020.3 0.3 55
2019-05-30 02:00:00 18.4 5 Nordeste 12 Este 0 1020.3 1 46
2019-05-30 01:00:00 18.6 4 Nordeste 17 Este 0 1020.3 2 42
2019-05-30 00:00:00 19 10 Este 17 Este 0 1020 2.3 49
2019-05-29 23:00:00 19.7 10 Este 23 Este 0 1019.3 2.2 42
2019-05-29 22:00:00 20 12 Este 19 Este 0 1018.3 1.5 49
2019-05-29 21:00:00 21.3 11 Este 27 Sudeste 0 1017.7 0.9 38
2019-05-29 20:00:00 22.3 17 Este 31 Este 0 1017.1 0.3 33
2019-05-29 19:00:00 22.6 19 Este 34 Sudeste 0 1016.8 0 35
2019-05-29 18:00:00 22.4 20 Sudeste 35 Sudeste 0 1016.8 0.2 39
2019-05-29 17:00:00 22.6 20 Sudeste 36 Sudeste 0 1016.8 0.1 39
2019-05-29 16:00:00 22 24 Sudeste 38 Sudeste 0 1016.8 0 49
2019-05-29 15:00:00 22.7 22 Sudeste 38 Este 0 1016.6 -0.2 38
2019-05-29 14:00:00 22.3 26 Sudeste 40 Sudeste 0 1016.7 -0.1 42
2019-05-29 13:00:00 22.8 24 Sudeste 41 Sudeste 0 1016.8 0 39
2019-05-29 12:00:00 22.5 24 Sudeste 44 Sudeste 0 1016.8 0.5 46
2019-05-29 11:00:00 23.4 18 Este 35 Este 0 1016.8 0.9 46
2019-05-29 10:00:00 22.5 19 Este 34 Este 0 1016.8 1.9 44
2019-05-29 09:00:00 21.8 15 Este 29 Este 0 1016.3 1.8 41
2019-05-29 08:00:00 20.5 5 Nordeste 10 Este 0 1015.9 1.8 43
2019-05-29 07:00:00 18.5 5 Nordeste 9 Nordeste 0 1014.9 1 49
2019-05-29 06:00:00 18.5 5 Norte 8 Norte 0 1014.5 0.7 60
2019-05-29 05:00:00 18 2 Noroeste 5 Noroeste 0 1014.1 0.6 65
2019-05-29 04:00:00 18.9 2 Norte 8 Norte 0 1013.9 0.7 62
2019-05-29 03:00:00 19.3 3 Este 19 Este 0 1013.8 1.1 65
2019-05-29 02:00:00 19.9 11 Este 25 Este 0 1013.5 1.3 65
2019-05-29 01:00:00 20.4 10 Este 24 Este 0 1013.2 2 66
2019-05-29 00:00:00 20.6 12 Este 22 Este 0 1012.7 2.4 69
2019-05-28 23:00:00 20.5 6 Este 21 Este 0 1012.2 2.6 74
2019-05-28 22:00:00 20.8 11 Este 20 Este 0 1011.2 2 74
2019-05-28 21:00:00 21.5 12 Este 22 Este 0 1010.3 1.1 69
2019-05-28 20:00:00 22 12 Sudeste 19 Sudeste 0 1009.6 0.4 67
2019-05-28 19:00:00 23.1 11 Sudeste 22 Este 0 1009.2 -0.2 63
2019-05-28 18:00:00 23.4 11 Sur 25 Sudeste 0 1009.2 -0.4 62
2019-05-28 17:00:00 23.7 13 Sudeste 30 Sudeste 0 1009.2 -0.4 61
2019-05-28 16:00:00 24.1 19 Sudeste 31 Sudeste 0 1009.4 -0.2 58
2019-05-28 15:00:00 24.1 20 Sudeste 32 Sudeste 0 1009.6 0.1 58
2019-05-28 14:00:00 24.1 16 Sudeste 32 Sudeste 0 1009.6 0.3 62
2019-05-28 13:00:00 24.9 18 Sudeste 29 Sudeste 0 1009.6 0.4 53
2019-05-28 12:00:00 24.4 16 Sudeste 27 Sudeste 0 1009.5 0.6 55
2019-05-28 11:00:00 24 15 Sudeste 24 Sudeste 0 1009.3 0.7 53
2019-05-28 10:00:00 23.6 4 Sudoeste 13 Sudeste 0 1009.2 1 54
2019-05-28 09:00:00 22.5 5 Oeste 11 Oeste 0 1008.9 1.3 53
2019-05-28 08:00:00 20.4 0 Calma 8 Norte 0 1008.6 1.3 57
2019-05-28 07:00:00 17.9 4 Noroeste 8 Noroeste 0 1008.2 1 67
2019-05-28 06:00:00 18.7 2 Nordeste 10 Nordeste 0 1007.6 0.6 66
2019-05-28 05:00:00 19.2 7 Nordeste 19 Este 0 1007.3 0.1 74
2019-05-28 04:00:00 19.2 7 Este 18 Este 0 1007.2 -0.2 76
2019-05-28 03:00:00 19.1 7 Este 13 Este 0 1007 -0.9 74
2019-05-28 02:00:00 19.6 7 Nordeste 10 Nordeste 0 1007.2 -0.6 71
2019-05-28 01:00:00 19.7 4 Este 8 Este 0 1007.4 -0.1 73
2019-05-28 00:00:00 20.1 5 Este 10 Este 0 1007.9 0.5 68